Time;durP1;ratioP1;P1;durP2;ratioP2;P2;SDS_P1;SDS_P2;PMS_P1;PMS_P2;Temp;Humidity;BMP_temperature;BMP_pressure;BME280_temperature;BME280_humidity;BME280_pressure;Samples;Min_cycle;Max_cycle;Signal;HPM_P1;HPM_P2
2022/08/11 00:00:11;;;;;;;55.20;36.83;;;27.50;99.90;;;;;;5048800;28;20065;-65
2022/08/11 00:02:43;;;;;;;59.13;40.45;;;27.50;99.90;;;;;;5055639;28;20030;-65
2022/08/11 00:05:14;;;;;;;52.58;39.22;;;27.50;99.90;;;;;;5038437;28;20021;-64
2022/08/11 00:07:44;;;;;;;57.42;38.60;;;27.50;99.90;;;;;;5036764;28;20204;-65
2022/08/11 00:10:16;;;;;;;57.60;41.83;;;27.60;99.90;;;;;;5035539;28;20037;-64
2022/08/11 00:12:43;;;;;;;70.47;40.92;;;27.50;99.90;;;;;;5041235;28;20021;-65
2022/08/11 00:15:11;;;;;;;61.35;40.22;;;27.60;99.90;;;;;;5055669;28;20025;-65
2022/08/11 00:17:38;;;;;;;60.50;41.92;;;27.50;99.90;;;;;;5039781;28;20029;-65
2022/08/11 00:20:15;;;;;;;54.53;39.15;;;27.60;99.90;;;;;;5035551;28;20017;-65
2022/08/11 00:22:45;;;;;;;63.75;41.97;;;27.60;99.90;;;;;;5035341;28;20482;-65
2022/08/11 00:25:14;;;;;;;70.07;41.13;;;27.60;99.90;;;;;;5041650;28;20040;-65
2022/08/11 00:27:41;;;;;;;55.55;40.05;;;27.70;99.90;;;;;;5055410;28;20104;-64
2022/08/11 00:30:11;;;;;;;64.75;45.05;;;27.70;99.90;;;;;;5055186;28;20021;-65
2022/08/11 00:32:41;;;;;;;73.72;47.95;;;27.70;99.90;;;;;;5054897;28;20506;-65
2022/08/11 00:35:12;;;;;;;62.63;46.67;;;27.60;99.90;;;;;;5055029;28;20496;-63
2022/08/11 00:37:43;;;;;;;71.93;47.60;;;27.70;99.90;;;;;;5055083;28;20100;-63
2022/08/11 00:40:25;;;;;;;75.20;45.37;;;27.70;99.90;;;;;;5055058;28;20106;-65
2022/08/11 00:43:00;;;;;;;56.42;42.00;;;27.70;99.90;;;;;;5054805;28;20029;-65
2022/08/11 00:45:36;;;;;;;57.25;40.15;;;27.80;99.90;;;;;;5055003;28;20029;-66
2022/08/11 00:48:27;;;;;;;53.95;36.10;;;27.80;99.90;;;;;;5054691;28;20079;-64
2022/08/11 00:51:15;;;;;;;52.13;36.60;;;27.80;99.90;;;;;;5054747;28;20129;-65
2022/08/11 00:53:43;;;;;;;73.43;45.88;;;27.90;99.90;;;;;;5054665;28;20032;-65
2022/08/11 00:56:39;;;;;;;97.40;63.72;;;27.90;99.90;;;;;;5053801;28;20044;-66
2022/08/11 00:59:28;;;;;;;67.88;45.97;;;27.90;99.90;;;;;;5055827;28;20025;-65
2022/08/11 01:01:59;;;;;;;92.60;64.68;;;28.00;99.90;;;;;;5054429;28;20057;-65
2022/08/11 01:04:45;;;;;;;67.50;48.30;;;28.00;99.90;;;;;;5054345;28;20049;-65
2022/08/11 01:07:42;;;;;;;108.07;70.75;;;28.10;99.90;;;;;;5054292;28;20025;-65
2022/08/11 01:10:33;;;;;;;84.18;47.72;;;28.20;99.90;;;;;;5055841;28;20028;-65
2022/08/11 01:13:14;;;;;;;79.70;52.75;;;28.30;99.90;;;;;;5055824;28;20024;-65
2022/08/11 01:16:01;;;;;;;71.77;46.77;;;28.30;99.90;;;;;;5063144;28;20031;-64
2022/08/11 01:18:49;;;;;;;61.40;40.40;;;28.40;99.90;;;;;;5060093;28;20246;-64
2022/08/11 01:21:26;;;;;;;50.28;33.88;;;28.60;99.90;;;;;;5061831;28;20028;-65
2022/08/11 01:24:04;;;;;;;53.28;36.30;;;28.70;99.90;;;;;;5060826;28;20017;-65
2022/08/11 01:26:41;;;;;;;59.13;35.80;;;28.80;99.90;;;;;;5066557;28;20029;-65
2022/08/11 01:29:29;;;;;;;55.25;36.63;;;28.90;99.90;;;;;;5073870;28;20491;-64
2022/08/11 01:32:26;;;;;;;59.95;37.10;;;29.00;99.90;;;;;;5073649;28;20048;-65
2022/08/11 01:35:13;;;;;;;46.88;30.70;;;29.10;99.90;;;;;;5073863;28;20028;-65
2022/08/11 01:38:00;;;;;;;72.82;42.30;;;29.10;99.90;;;;;;5051452;28;20040;-65
2022/08/11 01:40:30;;;;;;;39.58;27.02;;;29.20;99.90;;;;;;5051787;28;20032;-65
2022/08/11 01:46:15;;;;;;;38.45;23.45;;;29.40;99.90;;;;;;5051340;28;20037;-65
2022/08/11 01:48:43;;;;;;;31.35;21.40;;;29.60;99.90;;;;;;5051527;28;20025;-65
2022/08/11 01:51:31;;;;;;;37.70;23.55;;;29.70;99.90;;;;;;5051283;28;20401;-63
2022/08/11 01:54:08;;;;;;;28.98;20.05;;;29.80;99.90;;;;;;5050471;28;20057;-65
2022/08/11 01:56:56;;;;;;;45.95;26.65;;;29.80;99.90;;;;;;5051218;28;20024;-69
2022/08/11 01:59:35;;;;;;;41.28;24.90;;;29.90;99.90;;;;;;4972363;28;20381;-70
2022/08/11 02:02:10;;;;;;;34.47;23.67;;;29.90;99.90;;;;;;4972524;28;20078;-70
2022/08/11 02:04:58;;;;;;;39.28;21.05;;;29.90;99.90;;;;;;4972614;28;20047;-69
2022/08/11 02:07:44;;;;;;;44.83;26.35;;;30.00;99.90;;;;;;4972526;28;20069;-70
2022/08/11 02:13:06;;;;;;;31.90;21.25;;;30.10;99.90;;;;;;4972471;28;20030;-69
2022/08/11 02:15:57;;;;;;;48.75;29.63;;;30.20;99.90;;;;;;4972426;28;20468;-66
2022/08/11 02:23:38;;;;;;;44.67;24.83;;;30.30;99.90;;;;;;4933834;29;20036;-64
2022/08/11 02:24:27;;;;;;;28.88;18.55;;;30.40;99.90;;;;;;4972352;28;20062;-63
2022/08/11 02:27:13;;;;;;;33.28;19.00;;;30.50;99.90;;;;;;4972365;28;20027;-63
2022/08/11 02:30:05;;;;;;;35.55;21.95;;;30.70;99.90;;;;;;4972450;28;20027;-64
2022/08/11 02:35:34;;;;;;;24.50;13.98;;;30.90;99.90;;;;;;4972221;28;20070;-64
2022/08/11 02:38:29;;;;;;;22.65;12.45;;;30.90;99.90;;;;;;4972293;28;20077;-64
2022/08/11 02:44:06;;;;;;;20.80;13.95;;;30.80;99.90;;;;;;5010847;28;20045;-64
2022/08/11 02:46:57;;;;;;;24.77;14.50;;;30.80;99.90;;;;;;5011229;28;20084;-64
2022/08/11 02:49:53;;;;;;;26.83;13.88;;;30.90;99.90;;;;;;5011457;28;20072;-64
2022/08/11 02:52:39;;;;;;;25.23;14.00;;;30.90;99.90;;;;;;4971869;28;20037;-64
2022/08/11 02:55:45;;;;;;;26.05;17.85;;;30.80;99.90;;;;;;4959964;28;20069;-64
2022/08/11 02:58:16;;;;;;;28.05;14.13;;;30.70;99.90;;;;;;4960002;28;20055;-64
2022/08/11 03:00:56;;;;;;;31.93;15.17;;;30.70;99.90;;;;;;4952805;28;20487;-64
2022/08/11 03:03:34;;;;;;;25.23;15.65;;;30.70;99.90;;;;;;4972169;28;20265;-64
2022/08/11 03:06:10;;;;;;;25.05;14.77;;;30.70;99.90;;;;;;4970723;28;20027;-62
2022/08/11 03:08:57;;;;;;;32.45;16.73;;;30.80;99.90;;;;;;4970353;28;20495;-64
2022/08/11 03:18:25;;;;;;;22.38;14.65;;;30.80;99.90;;;;;;4981282;28;20049;-63
2022/08/11 03:20:58;;;;;;;23.83;14.05;;;30.80;99.90;;;;;;4977576;28;20105;-68
2022/08/11 03:23:48;;;;;;;31.65;14.63;;;30.80;99.90;;;;;;4984638;28;20459;-66
2022/08/11 03:26:32;;;;;;;21.65;14.18;;;30.80;99.90;;;;;;4984054;28;20153;-67
2022/08/11 03:29:23;;;;;;;28.42;15.32;;;30.70;99.90;;;;;;4976542;28;20114;-67
2022/08/11 03:32:00;;;;;;;76.25;46.67;;;30.80;99.90;;;;;;4975039;28;20082;-67
2022/08/11 03:34:29;;;;;;;31.48;16.35;;;31.00;99.90;;;;;;4975176;28;20027;-67
2022/08/11 03:37:47;;;;;;;27.55;17.38;;;31.00;99.90;;;;;;4965272;28;20035;-65
2022/08/11 03:43:51;;;;;;;28.38;17.70;;;31.00;99.90;;;;;;4936782;29;20044;-67
2022/08/11 03:46:44;;;;;;;23.75;14.27;;;31.00;99.90;;;;;;4936464;29;20024;-73
2022/08/11 03:49:29;;;;;;;21.13;12.95;;;31.00;99.90;;;;;;4950739;29;20035;-67
2022/08/11 03:52:16;;;;;;;17.58;12.88;;;31.00;99.90;;;;;;4955485;29;20542;-67
2022/08/11 03:55:00;;;;;;;23.15;14.43;;;31.00;99.90;;;;;;4955437;29;20039;-66
2022/08/11 03:57:44;;;;;;;29.42;18.83;;;31.00;99.90;;;;;;4955347;29;20027;-67
2022/08/11 04:00:24;;;;;;;26.20;13.45;;;31.20;99.90;;;;;;4955507;29;20031;-68
2022/08/11 04:02:52;;;;;;;23.83;12.50;;;31.40;99.90;;;;;;4955240;29;20030;-68
2022/08/11 04:05:31;;;;;;;20.65;12.07;;;31.60;99.90;;;;;;4955341;29;20156;-68
2022/08/11 04:08:18;;;;;;;20.52;13.02;;;31.60;99.90;;;;;;4955281;29;20065;-67
2022/08/11 04:11:05;;;;;;;18.65;11.65;;;31.60;99.90;;;;;;4984694;28;20089;-68
2022/08/11 04:15:58;;;;;;;20.08;11.60;;;31.50;99.90;;;;;;4974080;28;20372;-67
2022/08/11 04:16:54;;;;;;;19.40;13.48;;;31.70;99.90;;;;;;4967958;28;20495;-66
2022/08/11 04:19:50;;;;;;;22.83;12.90;;;31.80;99.90;;;;;;4973863;28;20061;-67
2022/08/11 04:23:02;;;;;;;18.38;11.45;;;31.90;99.90;;;;;;5001036;28;20073;-68
2022/08/11 04:25:28;;;;;;;20.60;12.98;;;32.00;99.90;;;;;;4947906;29;20440;-67
2022/08/11 04:30:59;;;;;;;17.23;12.23;;;32.30;99.90;;;;;;4935446;29;20095;-67
2022/08/11 04:33:43;;;;;;;17.10;10.55;;;32.30;99.90;;;;;;4935439;29;20035;-62
2022/08/11 04:36:11;;;;;;;17.35;11.75;;;32.50;99.90;;;;;;4939841;29;20088;-68
2022/08/11 04:38:48;;;;;;;23.63;12.98;;;32.70;99.90;;;;;;4953611;29;20039;-67
2022/08/11 04:43:19;;;;;;;17.73;12.05;;;32.70;99.90;;;;;;4953899;29;20384;-66
2022/08/11 04:44:51;;;;;;;26.80;14.77;;;32.50;99.90;;;;;;5039053;28;20060;-65
2022/08/11 05:01:53;;;;;;;16.05;8.07;;;32.60;99.90;;;;;;5036118;28;20037;-67
2022/08/11 05:07:35;;;;;;;17.38;8.45;;;32.50;99.90;;;;;;5043134;28;20029;-67
2022/08/11 05:10:11;;;;;;;16.00;8.70;;;32.40;99.90;;;;;;5040660;28;20083;-66
2022/08/11 05:36:35;;;;;;;14.07;7.45;;;32.60;99.90;;;;;;4973999;28;20445;-65
2022/08/11 05:56:17;;;;;;;10.70;7.72;;;32.90;99.40;;;;;;4859505;29;20503;-65
2022/08/11 05:58:49;;;;;;;22.52;9.23;;;33.00;99.20;;;;;;4859219;29;20047;-65
2022/08/11 06:01:24;;;;;;;13.70;8.35;;;33.00;98.80;;;;;;4859287;29;20033;-65
2022/08/11 06:06:30;;;;;;;17.75;8.52;;;33.00;98.60;;;;;;4857726;29;20045;-66
2022/08/11 06:08:58;;;;;;;18.02;8.48;;;32.90;99.30;;;;;;4820794;29;20543;-66
2022/08/11 06:11:26;;;;;;;9.85;7.80;;;33.10;99.60;;;;;;4804151;29;20413;-65
2022/08/11 06:13:53;;;;;;;16.35;8.65;;;33.30;99.00;;;;;;4828301;29;20133;-66
2022/08/11 06:16:26;;;;;;;13.52;7.65;;;33.50;98.90;;;;;;4824644;29;20042;-65
2022/08/11 06:18:54;;;;;;;10.65;7.38;;;33.50;98.00;;;;;;4821054;29;20049;-65
2022/08/11 06:21:21;;;;;;;13.20;7.50;;;33.40;98.50;;;;;;4831208;29;20045;-65
2022/08/11 06:23:48;;;;;;;13.88;7.90;;;33.50;98.10;;;;;;4864763;29;20081;-65
2022/08/11 06:26:15;;;;;;;11.48;7.22;;;33.60;97.40;;;;;;4913429;29;20038;-64
2022/08/11 06:28:45;;;;;;;9.73;5.88;;;33.80;97.10;;;;;;4929905;29;20055;-64
2022/08/11 06:31:23;;;;;;;11.38;6.70;;;33.90;96.80;;;;;;4968297;28;20396;-64
2022/08/11 06:33:50;;;;;;;10.05;6.43;;;34.00;95.40;;;;;;5020117;28;20037;-64
2022/08/11 06:36:24;;;;;;;10.68;6.35;;;33.90;95.10;;;;;;5041718;28;20014;-64
2022/08/11 06:39:01;;;;;;;11.05;6.53;;;33.90;95.10;;;;;;5035529;28;20029;-65
2022/08/11 06:42:04;;;;;;;12.68;6.68;;;33.80;95.40;;;;;;5035764;28;20021;-65
2022/08/11 06:44:40;;;;;;;13.52;7.35;;;33.70;95.20;;;;;;5036904;28;20071;-66
2022/08/11 06:47:14;;;;;;;9.18;6.15;;;33.90;95.50;;;;;;5038803;28;20107;-66
2022/08/11 06:52:36;;;;;;;12.48;7.57;;;34.20;93.80;;;;;;5017081;28;20057;-66
2022/08/11 06:55:11;;;;;;;11.93;6.72;;;34.20;94.20;;;;;;5023597;28;20029;-66
2022/08/11 07:00:32;;;;;;;10.93;6.93;;;34.30;94.90;;;;;;5024680;28;20042;-65
2022/08/11 07:03:00;;;;;;;17.20;7.50;;;34.30;94.70;;;;;;5022019;28;20036;-65
2022/08/11 07:05:42;;;;;;;19.20;7.85;;;34.40;94.50;;;;;;5032650;28;20037;-65
2022/08/11 07:16:59;;;;;;;15.38;8.63;;;34.30;93.40;;;;;;5037528;28;20056;-65
2022/08/11 07:31:15;;;;;;;16.10;9.15;;;34.40;91.40;;;;;;5035298;28;20090;-64
2022/08/11 07:33:49;;;;;;;15.98;9.43;;;34.40;90.90;;;;;;5040672;28;20142;-65
2022/08/11 07:36:17;;;;;;;13.98;7.60;;;34.30;90.80;;;;;;5034978;28;20022;-65
2022/08/11 07:38:49;;;;;;;10.70;7.20;;;34.30;91.10;;;;;;5045351;28;20060;-65
2022/08/11 07:41:21;;;;;;;14.10;7.80;;;34.30;90.90;;;;;;5042138;28;20037;-65
2022/08/11 07:43:53;;;;;;;16.48;8.48;;;34.30;91.10;;;;;;5035351;28;20057;-65
2022/08/11 07:54:43;;;;;;;14.32;6.85;;;34.50;91.80;;;;;;4994383;28;20022;-67
2022/08/11 08:31:54;;;;;;;19.25;9.50;;;33.70;92.50;;;;;;5076251;28;20028;-64
2022/08/11 08:34:21;;;;;;;17.92;7.95;;;33.70;92.90;;;;;;5071489;28;20093;-63
2022/08/11 08:36:50;;;;;;;16.52;9.57;;;33.70;92.70;;;;;;5081667;28;20115;-64
2022/08/11 08:39:20;;;;;;;38.13;13.15;;;33.70;92.80;;;;;;5087233;28;20024;-62
2022/08/11 08:41:53;;;;;;;26.85;14.50;;;33.70;92.90;;;;;;5078156;28;20071;-64
2022/08/11 08:44:21;;;;;;;21.77;14.25;;;33.70;92.90;;;;;;5077414;28;20064;-63
2022/08/11 08:46:52;;;;;;;16.83;8.60;;;33.70;92.80;;;;;;5074572;28;20087;-64
2022/08/11 08:49:29;;;;;;;15.50;7.85;;;33.80;92.80;;;;;;5069904;28;20546;-65
2022/08/11 08:52:00;;;;;;;14.52;7.75;;;33.80;92.70;;;;;;5075476;28;20039;-64
2022/08/11 08:54:35;;;;;;;18.40;9.33;;;33.80;92.50;;;;;;5085758;28;20163;-64
2022/08/11 08:57:04;;;;;;;152.98;111.88;;;33.80;92.40;;;;;;5080686;28;20036;-62
2022/08/11 08:59:41;;;;;;;25.23;15.07;;;33.80;92.60;;;;;;5083972;28;20017;-62
2022/08/11 09:02:11;;;;;;;19.25;9.80;;;33.80;92.90;;;;;;5069091;28;20393;-65
2022/08/11 09:04:39;;;;;;;35.53;20.23;;;33.80;92.70;;;;;;5069890;28;20108;-63
2022/08/11 09:07:14;;;;;;;23.33;13.30;;;33.80;93.00;;;;;;5080949;28;20031;-63
2022/08/11 09:09:48;;;;;;;27.63;15.30;;;33.80;93.10;;;;;;5083631;28;20393;-63
2022/08/11 09:12:16;;;;;;;19.40;11.02;;;33.80;93.00;;;;;;5089871;28;20024;-63
2022/08/11 09:17:47;;;;;;;22.35;10.25;;;33.70;93.90;;;;;;5089789;28;20036;-63
2022/08/11 09:20:35;;;;;;;21.90;9.43;;;33.70;93.80;;;;;;5090274;28;20109;-63
2022/08/11 09:28:45;;;;;;;26.83;13.80;;;33.70;94.00;;;;;;5089557;28;20121;-63
2022/08/11 09:31:13;;;;;;;33.88;17.67;;;33.70;93.30;;;;;;5089534;28;20028;-63
2022/08/11 09:33:42;;;;;;;20.88;9.25;;;33.70;93.30;;;;;;5089607;28;20103;-63
2022/08/11 09:41:44;;;;;;;23.45;12.25;;;33.60;93.70;;;;;;5075936;28;20039;-62
2022/08/11 09:46:58;;;;;;;65.95;36.35;;;33.50;93.80;;;;;;5075639;28;20078;-63
2022/08/11 09:49:27;;;;;;;57.22;29.15;;;33.50;93.10;;;;;;5075876;28;20036;-63
2022/08/11 09:51:54;;;;;;;56.25;22.88;;;33.50;93.20;;;;;;5075785;28;20510;-64
2022/08/11 09:54:22;;;;;;;34.17;16.02;;;33.40;93.60;;;;;;5073104;28;20063;-62
2022/08/11 09:59:39;;;;;;;46.40;27.55;;;33.30;93.70;;;;;;5044599;28;20029;-63
2022/08/11 10:02:08;;;;;;;34.58;16.23;;;33.30;94.10;;;;;;5043660;28;20032;-62
2022/08/11 10:04:45;;;;;;;38.85;24.40;;;33.20;94.30;;;;;;5044281;28;20409;-63
2022/08/11 10:07:15;;;;;;;39.00;24.40;;;33.10;94.00;;;;;;5043613;28;20030;-61
2022/08/11 10:09:43;;;;;;;351.98;308.27;;;33.00;94.40;;;;;;5044239;28;20021;-62
2022/08/11 10:12:13;;;;;;;236.93;147.07;;;33.00;94.10;;;;;;5044521;28;20017;-63
2022/08/11 10:17:34;;;;;;;111.10;57.90;;;32.90;94.10;;;;;;5066092;28;20384;-62
2022/08/11 10:20:03;;;;;;;127.03;64.10;;;32.80;94.60;;;;;;5071185;28;20024;-64
2022/08/11 10:28:06;;;;;;;84.68;45.10;;;32.60;95.10;;;;;;5052451;28;20074;-64
2022/08/11 10:36:07;;;;;;;158.48;84.72;;;32.60;95.30;;;;;;5061774;28;20041;-64
2022/08/11 10:38:35;;;;;;;138.25;77.00;;;32.60;95.40;;;;;;5049585;28;20110;-62
2022/08/11 10:43:51;;;;;;;99.07;54.58;;;32.50;95.70;;;;;;5042233;28;20025;-64
2022/08/11 10:49:08;;;;;;;113.82;55.55;;;32.50;96.20;;;;;;5040423;28;20044;-64
2022/08/11 10:59:57;;;;;;;63.80;29.38;;;32.40;96.10;;;;;;4977777;28;20520;-63
2022/08/11 11:02:26;;;;;;;57.03;27.67;;;32.20;96.40;;;;;;4979998;28;20042;-62
2022/08/11 11:05:08;;;;;;;70.30;34.72;;;32.20;96.80;;;;;;4980669;28;20031;-63
2022/08/11 11:07:37;;;;;;;75.53;35.42;;;32.20;97.20;;;;;;4983235;28;20146;-64
2022/08/11 11:10:08;;;;;;;65.47;28.25;;;32.20;96.90;;;;;;4977618;28;20066;-59
2022/08/11 11:19:29;;;;;;;45.58;24.42;;;31.90;96.80;;;;;;4733678;30;20036;-66
2022/08/11 11:22:36;;;;;;;48.88;24.38;;;31.90;97.20;;;;;;4740701;30;20036;-65
2022/08/11 11:25:16;;;;;;;61.42;31.10;;;31.80;97.00;;;;;;4734106;30;20048;-63
2022/08/11 11:28:12;;;;;;;53.83;28.52;;;31.80;97.30;;;;;;4727807;30;20052;-65
2022/08/11 11:30:51;;;;;;;53.95;24.92;;;31.70;97.50;;;;;;4734526;30;20551;-65
2022/08/11 11:33:26;;;;;;;40.63;22.58;;;31.70;97.90;;;;;;4716844;30;20048;-63
2022/08/11 11:36:24;;;;;;;73.70;33.90;;;31.70;97.70;;;;;;4702957;30;20034;-65
2022/08/11 11:38:55;;;;;;;57.40;26.77;;;31.70;98.20;;;;;;4786367;30;20043;-66
2022/08/11 11:41:23;;;;;;;50.67;22.20;;;31.60;98.50;;;;;;4786441;30;20051;-64
2022/08/11 11:43:55;;;;;;;57.47;26.92;;;31.60;98.70;;;;;;4786154;30;20172;-67
2022/08/11 11:46:26;;;;;;;59.15;26.80;;;31.60;99.10;;;;;;4786372;30;20425;-66
2022/08/11 11:48:54;;;;;;;56.63;26.83;;;31.60;99.50;;;;;;4785761;30;20039;-66
2022/08/11 11:51:22;;;;;;;60.60;28.80;;;31.50;99.80;;;;;;4786915;29;20073;-64
2022/08/11 11:53:52;;;;;;;58.22;27.05;;;31.60;99.60;;;;;;4879448;29;20037;-67
2022/08/11 11:56:23;;;;;;;61.42;27.50;;;31.50;99.70;;;;;;4963785;28;20482;-66
2022/08/11 12:01:42;;;;;;;68.80;31.63;;;31.50;99.60;;;;;;5028692;28;20156;-66
2022/08/11 12:04:12;;;;;;;53.33;26.30;;;31.50;99.90;;;;;;5030244;28;20030;-68
2022/08/11 12:06:41;;;;;;;75.38;34.30;;;31.40;99.90;;;;;;5030571;28;20034;-67
2022/08/11 12:09:11;;;;;;;129.73;56.45;;;31.30;99.90;;;;;;5030268;28;20033;-66
2022/08/11 12:14:27;;;;;;;94.63;49.28;;;31.40;99.90;;;;;;5031021;28;20048;-66
2022/08/11 12:16:56;;;;;;;76.65;36.47;;;31.30;99.90;;;;;;5015190;28;20024;-64
2022/08/11 12:19:27;;;;;;;106.05;45.65;;;31.30;99.90;;;;;;5031200;28;20037;-64
2022/08/11 12:28:23;;;;;;;90.20;47.30;;;31.20;99.90;;;;;;4932583;29;20071;-66
2022/08/11 12:30:53;;;;;;;126.03;61.78;;;31.10;99.90;;;;;;4932831;29;20493;-66
2022/08/11 12:33:23;;;;;;;198.32;97.90;;;31.00;99.90;;;;;;4932973;29;20144;-66
2022/08/11 12:36:14;;;;;;;121.32;59.85;;;31.00;99.90;;;;;;4931803;29;20028;-66
2022/08/11 12:38:41;;;;;;;;;;;30.90;99.90;;;;;;4932429;29;20512;-66
2022/08/11 12:46:50;;;;;;;104.78;48.42;;;30.80;99.90;;;;;;4931718;29;20123;-65
2022/08/11 12:52:16;;;;;;;74.50;32.50;;;30.80;99.90;;;;;;4950574;29;20027;-64
2022/08/11 12:55:03;;;;;;;62.92;30.70;;;30.80;99.90;;;;;;4949460;29;20028;-63
2022/08/11 13:06:15;;;;;;;56.83;26.08;;;30.60;99.90;;;;;;4909040;29;20040;-66
2022/08/11 13:08:44;;;;;;;73.03;42.08;;;30.50;99.90;;;;;;4896908;29;20111;-64
2022/08/11 13:13:58;;;;;;;86.93;41.78;;;30.50;99.90;;;;;;4913269;29;20037;-65
2022/08/11 13:16:29;;;;;;;127.03;64.03;;;30.50;99.90;;;;;;4915274;29;20160;-65
2022/08/11 13:19:01;;;;;;;76.70;39.73;;;30.40;99.90;;;;;;4914436;29;20036;-65
2022/08/11 13:21:29;;;;;;;127.57;61.70;;;30.40;99.90;;;;;;4916005;29;20258;-65
2022/08/11 13:23:57;;;;;;;151.05;71.22;;;30.40;99.90;;;;;;4935896;29;20135;-64
2022/08/11 13:26:24;;;;;;;105.28;50.90;;;30.40;99.90;;;;;;4936696;29;20031;-65
2022/08/11 13:28:53;;;;;;;104.22;49.97;;;30.40;99.90;;;;;;4936520;29;20067;-66
2022/08/11 13:31:20;;;;;;;81.40;36.88;;;30.40;99.90;;;;;;4934881;29;20185;-64
2022/08/11 13:33:58;;;;;;;87.97;40.55;;;30.40;99.90;;;;;;4934959;29;20051;-65
2022/08/11 13:36:27;;;;;;;208.90;82.28;;;30.40;99.90;;;;;;4934964;29;20611;-65
2022/08/11 13:38:57;;;;;;;132.60;51.17;;;30.40;99.90;;;;;;4934717;29;20027;-66
2022/08/11 13:41:38;;;;;;;146.70;54.90;;;30.40;99.90;;;;;;5006611;28;20033;-65
2022/08/11 13:44:12;;;;;;;178.68;69.38;;;30.40;99.90;;;;;;5028893;28;20040;-66
2022/08/11 13:46:41;;;;;;;117.10;50.15;;;30.40;99.90;;;;;;5040012;28;20037;-67
2022/08/11 13:49:09;;;;;;;251.68;104.55;;;30.50;99.90;;;;;;5040196;28;20509;-68
2022/08/11 13:51:38;;;;;;;174.43;72.13;;;30.40;99.90;;;;;;5044222;28;20482;-68
2022/08/11 13:54:08;;;;;;;64.18;31.15;;;30.40;99.90;;;;;;5044930;28;20056;-69
2022/08/11 13:56:38;;;;;;;176.43;104.53;;;30.30;99.90;;;;;;5040101;28;20045;-69
2022/08/11 13:59:08;;;;;;;123.95;61.75;;;30.30;99.90;;;;;;5044352;28;20049;-69
2022/08/11 14:01:39;;;;;;;159.35;104.75;;;30.30;99.90;;;;;;5056118;28;20547;-66
2022/08/11 14:04:23;;;;;;;189.07;150.30;;;30.20;99.90;;;;;;5056481;28;20029;-69
2022/08/11 14:06:53;;;;;;;76.20;45.55;;;30.20;99.90;;;;;;5056536;28;20056;-67
2022/08/11 14:09:34;;;;;;;60.50;29.25;;;30.30;99.90;;;;;;5056395;28;20025;-69
2022/08/11 14:14:46;;;;;;;60.95;28.50;;;30.20;99.90;;;;;;5071770;28;20032;-68
2022/08/11 14:17:16;;;;;;;57.95;28.23;;;30.30;99.90;;;;;;5076456;28;20024;-68
2022/08/11 14:19:50;;;;;;;91.28;45.08;;;30.30;99.90;;;;;;5076208;28;20054;-67
2022/08/11 14:22:20;;;;;;;79.82;36.67;;;30.30;99.90;;;;;;5073968;28;20035;-68
2022/08/11 14:24:48;;;;;;;56.33;25.40;;;30.20;99.90;;;;;;5075012;28;20169;-67
2022/08/11 14:27:18;;;;;;;50.33;22.88;;;30.10;99.90;;;;;;5075008;28;20056;-71
2022/08/11 14:29:45;;;;;;;57.35;24.70;;;30.10;99.90;;;;;;5075304;28;20025;-68
2022/08/11 14:32:14;;;;;;;36.20;15.40;;;30.00;99.90;;;;;;5075005;28;20024;-66
2022/08/11 14:34:43;;;;;;;59.25;26.98;;;30.00;99.90;;;;;;5075155;28;20031;-67
2022/08/11 14:37:14;;;;;;;38.08;18.15;;;30.00;99.90;;;;;;5075448;28;20032;-69
2022/08/11 14:39:55;;;;;;;37.22;17.13;;;30.00;99.90;;;;;;5075081;28;20245;-68
2022/08/11 14:48:04;;;;;;;40.70;17.55;;;29.90;99.90;;;;;;5074942;28;20103;-69
2022/08/11 14:50:33;;;;;;;36.10;16.48;;;29.90;99.90;;;;;;5075264;28;20030;-67
2022/08/11 14:53:07;;;;;;;33.92;14.45;;;29.80;99.90;;;;;;5075112;28;20492;-70
2022/08/11 14:58:18;;;;;;;29.10;14.68;;;29.80;99.90;;;;;;5074945;28;20020;-68
2022/08/11 15:00:49;;;;;;;38.58;19.20;;;29.80;99.90;;;;;;5074719;28;20028;-67
2022/08/11 15:03:16;;;;;;;56.88;25.55;;;29.80;99.90;;;;;;5075319;28;20033;-69
2022/08/11 15:05:48;;;;;;;32.83;15.23;;;29.80;99.90;;;;;;5074962;28;20499;-69
2022/08/11 15:08:16;;;;;;;32.70;15.85;;;29.70;99.90;;;;;;5074854;28;20075;-70
2022/08/11 15:10:44;;;;;;;51.17;20.27;;;29.70;99.90;;;;;;5075250;28;20103;-69
2022/08/11 15:13:11;;;;;;;46.72;20.83;;;29.70;99.90;;;;;;5072830;28;20016;-68
2022/08/11 15:18:26;;;;;;;35.17;15.40;;;29.70;99.90;;;;;;5074338;28;20033;-67
2022/08/11 15:38:01;;;;;;;37.83;14.98;;;29.50;99.90;;;;;;5073683;28;20491;-67
2022/08/11 15:46:09;;;;;;;27.23;13.35;;;29.50;99.90;;;;;;5064393;28;20040;-65
2022/08/11 15:48:47;;;;;;;41.28;14.23;;;29.50;99.90;;;;;;5053852;28;20059;-65
2022/08/11 15:51:26;;;;;;;49.88;17.95;;;29.50;99.90;;;;;;5053667;28;20021;-65
2022/08/11 15:53:57;;;;;;;34.80;14.13;;;29.50;99.90;;;;;;5053716;28;20112;-64
2022/08/11 15:56:29;;;;;;;33.00;15.17;;;29.50;99.90;;;;;;5053559;28;20473;-65
2022/08/11 16:04:25;;;;;;;50.45;18.55;;;29.40;99.90;;;;;;5053643;28;20044;-65
2022/08/11 16:06:53;;;;;;;42.05;16.88;;;29.50;99.90;;;;;;5053273;28;20039;-64
2022/08/11 16:09:30;;;;;;;36.78;14.27;;;29.50;99.90;;;;;;5053952;28;20051;-66
2022/08/11 16:12:02;;;;;;;31.17;13.25;;;29.40;99.90;;;;;;5053761;28;20021;-65
2022/08/11 16:17:20;;;;;;;39.53;13.27;;;29.40;99.90;;;;;;5053600;28;20095;-65
2022/08/11 16:19:51;;;;;;;43.58;17.13;;;29.30;99.90;;;;;;5069875;22;20057;-65
2022/08/11 16:22:33;;;;;;;36.13;16.08;;;29.30;99.90;;;;;;5033685;28;20478;-66
2022/08/11 16:25:02;;;;;;;30.05;13.63;;;29.40;99.90;;;;;;5033423;28;20037;-65
2022/08/11 16:27:32;;;;;;;34.65;13.57;;;29.30;99.90;;;;;;5033605;28;20069;-65
2022/08/11 16:30:00;;;;;;;34.30;14.27;;;29.20;99.90;;;;;;5033366;28;20026;-65
2022/08/11 16:32:30;;;;;;;32.00;15.43;;;29.30;99.90;;;;;;5033610;28;20030;-65
2022/08/11 16:40:39;;;;;;;33.60;13.90;;;29.30;99.90;;;;;;5033243;28;20037;-65
2022/08/11 16:48:47;;;;;;;38.67;14.00;;;29.20;99.90;;;;;;5033791;28;20079;-65
2022/08/11 16:51:14;;;;;;;40.95;15.73;;;29.30;99.90;;;;;;5037168;28;20033;-64
2022/08/11 16:53:44;;;;;;;32.65;13.23;;;29.30;99.90;;;;;;5037545;28;20493;-65
2022/08/11 16:56:15;;;;;;;39.38;14.07;;;29.20;99.90;;;;;;5037087;28;20492;-65
2022/08/11 17:01:32;;;;;;;40.15;14.68;;;29.20;99.90;;;;;;5037114;28;20112;-64
2022/08/11 17:18:38;;;;;;;31.73;14.52;;;29.20;99.90;;;;;;5036347;28;20478;-65
2022/08/11 17:21:04;;;;;;;43.95;16.05;;;29.20;99.90;;;;;;5026517;28;20057;-66
2022/08/11 17:26:09;;;;;;;34.60;16.52;;;29.20;99.90;;;;;;5036769;28;20025;-65
2022/08/11 17:28:36;;;;;;;37.72;19.50;;;29.20;99.90;;;;;;5036722;28;20021;-66
2022/08/11 17:36:43;;;;;;;30.98;15.23;;;29.10;99.90;;;;;;5036649;28;20504;-66
2022/08/11 17:39:11;;;;;;;36.63;14.18;;;29.10;99.90;;;;;;5036328;28;20029;-66
2022/08/11 17:49:51;;;;;;;27.63;12.25;;;29.00;99.90;;;;;;5036147;28;20022;-66
2022/08/11 18:00:30;;;;;;;28.45;13.13;;;29.00;99.90;;;;;;5035363;28;20271;-65
2022/08/11 18:05:47;;;;;;;21.90;12.43;;;29.10;99.90;;;;;;5035829;28;20029;-65
